createdAt,value
2022-10-18T00:01:17.235Z,47.00
2022-10-18T00:03:45.868Z,47.19
2022-10-18T00:06:14.363Z,47.21
2022-10-18T00:08:45.205Z,46.99
2022-10-18T00:11:13.714Z,47.24
2022-10-18T00:13:42.165Z,47.56
2022-10-18T00:16:16.725Z,47.45
2022-10-18T00:18:46.046Z,47.30
2022-10-18T00:21:17.800Z,47.82
2022-10-18T00:23:51.812Z,47.82
2022-10-18T00:26:26.510Z,47.96
2022-10-18T00:28:57.218Z,48.19
2022-10-18T00:31:34.227Z,48.31
2022-10-18T00:34:05.281Z,48.38
2022-10-18T00:36:35.615Z,48.57
2022-10-18T00:39:06.304Z,48.80
2022-10-18T00:41:36.925Z,49.02
2022-10-18T00:44:28.125Z,49.40
2022-10-18T00:47:03.795Z,49.74
2022-10-18T00:49:45.893Z,50.01
2022-10-18T00:52:22.702Z,50.12
2022-10-18T00:54:53.413Z,50.42
2022-10-18T00:57:22.209Z,50.53
2022-10-18T00:59:50.806Z,50.67
2022-10-18T01:02:20.120Z,51.00
2022-10-18T01:04:49.405Z,51.10
2022-10-18T01:07:46.667Z,51.39
2022-10-18T01:10:32.922Z,51.49
2022-10-18T01:13:10.519Z,52.46
2022-10-18T01:15:52.640Z,52.34
2022-10-18T01:18:35.625Z,52.26
2022-10-18T01:21:19.329Z,52.65
2022-10-18T01:24:08.551Z,52.73
2022-10-18T01:26:58.199Z,53.02
2022-10-18T01:30:01.592Z,53.61
2022-10-18T01:32:40.564Z,53.32
2022-10-18T01:35:15.598Z,53.50
2022-10-18T01:37:48.085Z,53.47
2022-10-18T01:40:21.234Z,53.80
2022-10-18T01:42:51.020Z,54.53
2022-10-18T01:45:23.104Z,54.14
2022-10-18T01:47:52.425Z,54.45
2022-10-18T01:50:31.538Z,54.70
2022-10-18T01:53:00.445Z,54.76
2022-10-18T01:55:50.685Z,54.99
2022-10-18T01:58:42.802Z,55.09
2022-10-18T02:01:30.999Z,55.09
2022-10-18T02:04:08.398Z,55.28
2022-10-18T02:06:46.210Z,55.60
2022-10-18T02:09:22.323Z,55.68
2022-10-18T02:11:55.484Z,55.67
2022-10-18T02:14:26.995Z,56.17
2022-10-18T02:17:00.113Z,55.87
2022-10-18T02:19:34.845Z,55.81
2022-10-18T02:22:03.959Z,55.94
2022-10-18T02:24:38.854Z,56.00
2022-10-18T02:27:07.452Z,56.02
2022-10-18T02:29:36.964Z,56.05
2022-10-18T02:32:31.484Z,56.33
2022-10-18T02:35:08.760Z,56.52
2022-10-18T02:37:41.067Z,56.73
2022-10-18T02:40:11.692Z,56.85
2022-10-18T02:42:51.315Z,56.94
2022-10-18T02:45:19.784Z,57.13
2022-10-18T02:47:48.249Z,57.23
2022-10-18T02:50:16.603Z,57.16
2022-10-18T02:52:44.934Z,57.29
2022-10-18T02:55:13.260Z,57.49
2022-10-18T02:57:41.586Z,57.30
2022-10-18T03:00:10.680Z,57.67
2022-10-18T03:02:39.005Z,57.61
2022-10-18T03:05:07.650Z,57.52
2022-10-18T03:07:36.106Z,57.77
2022-10-18T03:10:04.564Z,57.84
2022-10-18T03:12:32.923Z,57.89
2022-10-18T03:15:01.240Z,58.24
2022-10-18T03:17:29.929Z,58.40
2022-10-18T03:19:58.465Z,58.32
2022-10-18T03:25:02.811Z,58.67
2022-10-18T03:27:33.803Z,58.61
2022-10-18T03:30:02.359Z,58.97
2022-10-18T03:32:31.146Z,59.11
2022-10-18T03:35:01.346Z,59.07
2022-10-18T03:37:29.685Z,59.30
2022-10-18T03:39:58.039Z,59.20
2022-10-18T03:42:26.434Z,59.35
2022-10-18T03:44:54.945Z,59.33
2022-10-18T03:47:26.358Z,59.44
2022-10-18T03:49:57.133Z,59.88
2022-10-18T03:52:26.040Z,59.92
2022-10-18T03:54:54.465Z,60.02
2022-10-18T03:57:22.784Z,60.37
2022-10-18T03:59:51.144Z,60.27
2022-10-18T04:02:19.646Z,60.59
2022-10-18T04:04:48.083Z,60.53
2022-10-18T04:07:16.767Z,60.83
2022-10-18T04:09:45.246Z,60.79
2022-10-18T04:12:13.605Z,60.99
2022-10-18T04:14:42.027Z,60.91
2022-10-18T04:17:10.443Z,61.00
2022-10-18T04:19:38.742Z,61.14
2022-10-18T04:22:07.126Z,61.54
2022-10-18T04:24:35.475Z,61.46
2022-10-18T04:27:03.803Z,61.42
2022-10-18T04:29:32.126Z,61.75
2022-10-18T04:32:03.959Z,61.85
2022-10-18T04:34:34.737Z,61.94
2022-10-18T04:37:03.095Z,62.09
2022-10-18T04:39:31.531Z,62.01
2022-10-18T04:42:02.415Z,62.19
2022-10-18T04:44:30.753Z,62.36
2022-10-18T04:46:59.145Z,62.44
2022-10-18T04:49:27.410Z,62.49
2022-10-18T04:51:55.662Z,62.56
2022-10-18T04:54:26.570Z,62.78
2022-10-18T04:56:57.190Z,62.72
2022-10-18T04:59:25.561Z,63.04
2022-10-18T05:01:53.995Z,62.88
2022-10-18T05:04:22.485Z,62.99
2022-10-18T05:06:50.950Z,63.25
2022-10-18T05:09:19.325Z,63.54
2022-10-18T05:11:47.545Z,63.45
2022-10-18T05:14:15.795Z,63.43
2022-10-18T05:16:44.120Z,63.56
2022-10-18T05:19:12.600Z,63.63
2022-10-18T05:21:41.071Z,63.54
2022-10-18T05:24:11.334Z,63.81
2022-10-18T05:26:39.638Z,63.92
2022-10-18T05:29:08.056Z,63.93
2022-10-18T05:31:36.449Z,64.10
2022-10-18T05:34:05.273Z,64.08
2022-10-18T05:36:36.340Z,64.08
2022-10-18T05:39:06.228Z,64.25
2022-10-18T05:41:34.517Z,64.35
2022-10-18T05:44:07.007Z,64.22
2022-10-18T05:46:35.583Z,64.24
2022-10-18T05:49:03.925Z,64.46
2022-10-18T05:51:32.385Z,64.66
2022-10-18T05:54:04.757Z,64.47
2022-10-18T05:56:33.042Z,64.32
2022-10-18T05:59:01.241Z,64.39
2022-10-18T06:01:29.423Z,64.48
2022-10-18T06:03:57.718Z,64.74
2022-10-18T06:06:25.935Z,64.64
2022-10-18T06:08:54.208Z,64.76
2022-10-18T06:11:22.985Z,64.89
2022-10-18T06:13:53.109Z,64.79
2022-10-18T06:16:26.194Z,64.96
2022-10-18T06:18:58.680Z,64.95
2022-10-18T06:21:27.480Z,64.99
2022-10-18T06:23:58.031Z,64.96
2022-10-18T06:26:28.083Z,65.11
2022-10-18T06:28:56.986Z,65.11
2022-10-18T06:31:25.415Z,65.12
2022-10-18T06:33:56.866Z,65.41
2022-10-18T06:36:25.276Z,65.49
2022-10-18T06:38:53.790Z,65.57
2022-10-18T06:41:22.881Z,65.45
2022-10-18T06:43:52.758Z,65.52
2022-10-18T06:46:21.520Z,65.64
2022-10-18T06:48:49.883Z,65.70
2022-10-18T06:51:19.219Z,65.58
2022-10-18T06:53:59.669Z,65.71
2022-10-18T06:56:36.927Z,66.03
2022-10-18T06:59:05.997Z,65.76
2022-10-18T07:01:34.429Z,65.86
2022-10-18T07:04:02.830Z,65.82
2022-10-18T07:06:31.161Z,65.90
2022-10-18T07:08:59.635Z,66.11
2022-10-18T07:11:28.768Z,66.21
2022-10-18T07:14:05.616Z,66.24
2022-10-18T07:16:37.875Z,66.25
2022-10-18T07:19:06.175Z,66.30
2022-10-18T07:21:34.531Z,66.42
2022-10-18T07:24:02.743Z,66.40
2022-10-18T07:26:34.164Z,66.57
2022-10-18T07:29:08.020Z,66.49
2022-10-18T07:31:39.629Z,66.58
2022-10-18T07:34:10.280Z,66.73
2022-10-18T07:36:38.599Z,66.66
2022-10-18T07:39:07.585Z,66.61
2022-10-18T07:41:40.334Z,66.41
2022-10-18T07:44:08.674Z,66.59
2022-10-18T07:46:39.830Z,66.53
2022-10-18T07:49:08.055Z,66.72
2022-10-18T07:51:37.021Z,66.70
2022-10-18T07:54:05.350Z,66.59
2022-10-18T07:56:33.719Z,66.68
2022-10-18T07:59:02.046Z,66.55
2022-10-18T08:01:30.554Z,66.77
2022-10-18T08:04:04.562Z,66.80
2022-10-18T08:06:35.510Z,66.82
2022-10-18T08:09:04.121Z,67.13
2022-10-18T08:11:32.642Z,67.07
2022-10-18T08:14:01.074Z,67.09
2022-10-18T08:19:05.507Z,67.05
2022-10-18T08:21:34.025Z,67.20
2022-10-18T08:24:02.352Z,67.23
2022-10-18T08:26:32.767Z,67.35
2022-10-18T08:29:21.209Z,67.41
2022-10-18T08:31:51.886Z,67.37
2022-10-18T08:34:20.440Z,67.44
2022-10-18T08:36:48.744Z,67.36
2022-10-18T08:39:17.075Z,67.66
2022-10-18T08:42:13.077Z,67.59
2022-10-18T08:44:48.422Z,67.56
2022-10-18T08:47:32.691Z,67.54
2022-10-18T08:50:06.016Z,67.53
2022-10-18T08:53:06.658Z,67.62
2022-10-18T08:55:43.639Z,67.57
2022-10-18T08:58:20.280Z,67.78
2022-10-18T09:01:19.005Z,67.81
2022-10-18T09:04:09.080Z,67.92
2022-10-18T09:07:01.881Z,67.95
2022-10-18T09:09:49.205Z,67.77
2022-10-18T09:12:53.270Z,67.97
2022-10-18T09:15:50.930Z,67.98
2022-10-18T09:18:34.175Z,68.10
2022-10-18T09:21:24.865Z,68.23
2022-10-18T09:24:26.260Z,68.29
2022-10-18T09:27:02.479Z,68.21
2022-10-18T09:30:14.704Z,68.23
2022-10-18T09:33:00.918Z,68.19
2022-10-18T09:35:31.479Z,68.20
2022-10-18T09:38:06.951Z,68.52
2022-10-18T09:40:40.140Z,68.35
2022-10-18T09:43:16.439Z,68.44
2022-10-18T09:45:49.064Z,68.66
2022-10-18T09:48:20.425Z,68.61
2022-10-18T09:51:00.271Z,68.74
2022-10-18T09:53:48.930Z,68.71
2022-10-18T09:56:23.792Z,68.64
2022-10-18T09:58:52.556Z,68.82
2022-10-18T10:01:26.844Z,68.54
2022-10-18T10:03:55.319Z,68.57
2022-10-18T10:06:35.585Z,68.72
2022-10-18T10:09:17.723Z,68.86
2022-10-18T10:11:51.281Z,68.65
2022-10-18T10:14:24.760Z,68.88
2022-10-18T10:17:00.871Z,68.84
2022-10-18T10:19:38.803Z,69.27
2022-10-18T10:22:15.641Z,69.09
2022-10-18T10:24:54.839Z,68.87
2022-10-18T10:27:44.129Z,69.04
2022-10-18T10:30:31.600Z,68.87
2022-10-18T10:32:59.961Z,69.16
2022-10-18T10:35:53.123Z,69.07
2022-10-18T10:38:30.515Z,69.21
2022-10-18T10:41:00.276Z,69.23
2022-10-18T10:43:39.230Z,69.17
2022-10-18T10:46:10.696Z,69.31
2022-10-18T10:49:20.781Z,69.48
2022-10-18T10:51:45.199Z,69.49
2022-10-18T10:54:15.018Z,69.58
2022-10-18T10:57:04.064Z,69.32
2022-10-18T10:59:54.007Z,69.32
2022-10-18T11:02:24.105Z,69.66
2022-10-18T11:04:54.964Z,69.61
2022-10-18T11:07:50.645Z,69.82
2022-10-18T11:10:23.145Z,69.92
2022-10-18T11:13:04.914Z,69.97
2022-10-18T11:15:37.348Z,69.91
2022-10-18T11:18:29.560Z,69.94
2022-10-18T11:21:03.285Z,69.86
2022-10-18T11:23:33.883Z,70.20
2022-10-18T11:26:13.403Z,69.84
2022-10-18T11:29:10.660Z,70.01
2022-10-18T11:32:05.715Z,69.90
2022-10-18T11:34:52.118Z,69.71
2022-10-18T11:37:38.757Z,69.77
2022-10-18T11:40:46.809Z,69.85
2022-10-18T11:43:24.738Z,70.13
2022-10-18T11:46:06.443Z,70.01
2022-10-18T11:48:47.623Z,70.27
2022-10-18T11:51:56.384Z,70.21
2022-10-18T11:54:54.520Z,70.30
2022-10-18T11:57:32.050Z,70.21
2022-10-18T12:00:35.646Z,70.57
2022-10-18T12:03:09.514Z,70.34
2022-10-18T12:05:40.600Z,70.48
2022-10-18T12:08:40.162Z,70.53
2022-10-18T12:11:17.363Z,70.42
2022-10-18T12:14:09.291Z,70.87
2022-10-18T12:16:51.457Z,71.04
2022-10-18T12:19:27.009Z,70.80
2022-10-18T12:22:04.114Z,70.83
2022-10-18T12:24:34.842Z,70.62
2022-10-18T12:27:04.280Z,70.68
2022-10-18T12:29:55.702Z,70.66
2022-10-18T12:32:31.197Z,70.64
2022-10-18T12:35:12.924Z,70.74
2022-10-18T12:37:50.004Z,71.12
2022-10-18T12:40:31.320Z,70.75
2022-10-18T12:42:59.645Z,70.91
2022-10-18T12:45:35.098Z,70.65
2022-10-18T12:48:29.719Z,71.14
2022-10-18T12:51:07.320Z,71.04
2022-10-18T12:53:36.600Z,70.96
2022-10-18T12:56:29.883Z,71.21
2022-10-18T12:59:16.753Z,71.27
2022-10-18T13:01:54.106Z,71.07
2022-10-18T13:04:39.320Z,71.33
2022-10-18T13:07:09.240Z,71.40
2022-10-18T13:09:42.953Z,71.39
2022-10-18T13:12:11.218Z,71.15
2022-10-18T13:15:24.913Z,71.27
2022-10-18T13:18:21.784Z,71.30
2022-10-18T13:21:11.480Z,71.55
2022-10-18T13:23:58.135Z,71.61
2022-10-18T13:27:17.475Z,71.64
2022-10-18T13:30:15.663Z,71.57
2022-10-18T13:33:24.279Z,71.42
2022-10-18T13:36:12.135Z,71.69
2022-10-18T13:39:05.885Z,71.43
2022-10-18T13:41:50.699Z,71.55
2022-10-18T13:44:33.514Z,71.64
2022-10-18T13:47:01.785Z,71.43
2022-10-18T13:50:04.015Z,71.65
2022-10-18T13:52:56.305Z,71.47
2022-10-18T13:55:56.179Z,71.56
2022-10-18T13:59:13.754Z,71.61
2022-10-18T14:02:11.505Z,71.64
2022-10-18T14:05:10.853Z,71.79
2022-10-18T14:07:47.304Z,72.26
2022-10-18T14:11:02.067Z,71.69
2022-10-18T14:14:14.826Z,71.54
2022-10-18T14:16:58.369Z,71.63
2022-10-18T14:19:57.886Z,72.13
2022-10-18T14:22:41.360Z,71.73
2022-10-18T14:25:29.154Z,71.83
2022-10-18T14:28:18.459Z,72.26
2022-10-18T14:31:12.984Z,71.94
2022-10-18T14:33:48.430Z,71.86
2022-10-18T14:36:27.948Z,72.03
2022-10-18T14:39:05.080Z,72.09
2022-10-18T14:41:39.350Z,71.68
2022-10-18T14:44:33.899Z,72.02
2022-10-18T14:47:16.581Z,72.04
2022-10-18T14:49:46.169Z,72.11
2022-10-18T14:52:18.555Z,71.95
2022-10-18T14:54:47.646Z,72.08
2022-10-18T14:57:24.455Z,72.20
2022-10-18T14:59:59.320Z,71.97
2022-10-18T15:02:30.142Z,72.08
2022-10-18T15:05:11.195Z,72.34
2022-10-18T15:07:39.844Z,72.06
2022-10-18T15:10:15.735Z,72.04
2022-10-18T15:13:08.293Z,72.26
2022-10-18T15:15:35.995Z,71.76
2022-10-18T15:18:06.281Z,72.14
2022-10-18T15:20:43.313Z,72.39
2022-10-18T15:23:24.731Z,71.97
2022-10-18T15:26:00.824Z,72.45
2022-10-18T15:28:40.329Z,72.20
2022-10-18T15:31:23.159Z,72.25
2022-10-18T15:33:51.648Z,72.01
2022-10-18T15:36:33.870Z,71.90
2022-10-18T15:39:20.449Z,72.29
2022-10-18T15:41:55.320Z,71.86
2022-10-18T15:44:55.145Z,72.27
2022-10-18T15:47:26.154Z,71.97
2022-10-18T15:49:57.505Z,72.24
2022-10-18T15:52:41.516Z,72.23
2022-10-18T15:55:33.488Z,71.68
2022-10-18T15:58:41.684Z,71.88
2022-10-18T16:01:21.248Z,71.95
2022-10-18T16:03:50.875Z,72.05
2022-10-18T16:06:19.527Z,72.03
2022-10-18T16:08:50.529Z,72.34
2022-10-18T16:11:24.595Z,72.23
2022-10-18T16:13:57.835Z,72.13
2022-10-18T16:16:30.199Z,72.22
2022-10-18T16:18:59.159Z,72.11
2022-10-18T16:21:35.802Z,71.78
2022-10-18T16:24:04.919Z,72.04
2022-10-18T16:26:34.200Z,71.65
2022-10-18T16:29:03.022Z,71.72
2022-10-18T16:31:36.124Z,71.28
2022-10-18T16:34:05.247Z,71.12
2022-10-18T16:36:34.998Z,70.87
2022-10-18T16:39:08.602Z,70.56
2022-10-18T16:41:36.921Z,70.48
2022-10-18T16:44:05.713Z,70.32
2022-10-18T16:46:36.065Z,70.21
2022-10-18T16:49:05.715Z,70.15
2022-10-18T16:51:34.039Z,70.12
2022-10-18T16:54:04.764Z,69.96
2022-10-18T16:56:34.840Z,69.98
2022-10-18T16:59:03.486Z,69.76
2022-10-18T17:01:32.029Z,69.67
2022-10-18T17:04:00.425Z,69.76
2022-10-18T17:06:31.466Z,69.31
2022-10-18T17:09:00.934Z,69.11
2022-10-18T17:11:30.040Z,68.84
2022-10-18T17:13:58.408Z,68.63
2022-10-18T17:19:16.564Z,68.72
2022-10-18T17:21:44.845Z,68.59
2022-10-18T17:24:13.238Z,68.65
2022-10-18T17:26:41.538Z,68.52
2022-10-18T17:29:10.965Z,68.23
2022-10-18T17:31:39.416Z,67.85
2022-10-18T17:34:09.271Z,67.74
2022-10-18T17:36:37.720Z,67.68
2022-10-18T17:39:06.810Z,68.04
2022-10-18T17:41:35.160Z,67.97
2022-10-18T17:44:05.562Z,67.88
2022-10-18T17:46:33.889Z,67.58
2022-10-18T17:49:02.157Z,67.51
2022-10-18T17:51:30.525Z,67.46
2022-10-18T17:53:58.864Z,67.13
2022-10-18T17:56:31.959Z,67.36
2022-10-18T17:59:00.763Z,67.08
2022-10-18T18:01:29.443Z,66.88
2022-10-18T18:04:03.177Z,66.78
2022-10-18T18:06:35.125Z,66.81
2022-10-18T18:09:10.183Z,66.64
2022-10-18T18:11:40.975Z,66.32
2022-10-18T18:14:10.839Z,66.13
2022-10-18T18:16:41.554Z,66.05
2022-10-18T18:19:13.241Z,65.93
2022-10-18T18:21:42.485Z,65.79
2022-10-18T18:24:11.804Z,65.50
2022-10-18T18:26:41.320Z,65.35
2022-10-18T18:29:09.671Z,65.05
2022-10-18T18:31:40.063Z,64.82
2022-10-18T18:34:11.425Z,64.59
2022-10-18T18:36:40.246Z,64.48
2022-10-18T18:39:10.043Z,64.34
2022-10-18T18:41:39.480Z,64.24
2022-10-18T18:44:08.136Z,64.03
2022-10-18T18:46:39.478Z,63.66
2022-10-18T18:49:09.393Z,63.55
2022-10-18T18:51:41.235Z,63.22
2022-10-18T18:54:11.694Z,62.99
2022-10-18T18:56:40.129Z,62.71
2022-10-18T18:59:08.919Z,62.40
2022-10-18T19:01:39.176Z,62.37
2022-10-18T19:04:10.016Z,62.21
2022-10-18T19:06:41.246Z,62.15
2022-10-18T19:09:21.553Z,62.09
2022-10-18T19:11:54.587Z,61.89
2022-10-18T19:14:25.770Z,61.88
2022-10-18T19:16:56.385Z,61.70
2022-10-18T19:19:29.244Z,61.33
2022-10-18T19:22:00.115Z,61.15
2022-10-18T19:24:33.405Z,61.01
2022-10-18T19:27:05.084Z,60.87
2022-10-18T19:29:38.369Z,60.66
2022-10-18T19:32:09.626Z,60.66
2022-10-18T19:34:38.185Z,60.42
2022-10-18T19:37:06.460Z,60.10
2022-10-18T19:39:36.085Z,59.81
2022-10-18T19:42:08.035Z,59.72
2022-10-18T19:44:37.985Z,59.61
2022-10-18T19:47:13.026Z,59.19
2022-10-18T19:49:43.560Z,58.91
2022-10-18T19:52:13.233Z,58.79
2022-10-18T19:54:41.621Z,58.49
2022-10-18T19:57:10.015Z,57.79
2022-10-18T19:59:38.523Z,57.74
2022-10-18T20:02:06.820Z,56.83
2022-10-18T20:04:35.994Z,56.75
2022-10-18T20:07:04.451Z,56.79
2022-10-18T20:09:32.849Z,55.63
2022-10-18T20:12:01.226Z,55.52
2022-10-18T20:14:29.747Z,54.94
2022-10-18T20:16:58.204Z,54.02
2022-10-18T20:19:26.520Z,54.31
2022-10-18T20:21:58.525Z,53.58
2022-10-18T20:24:26.846Z,53.24
2022-10-18T20:26:55.133Z,52.71
2022-10-18T20:29:26.193Z,52.76
2022-10-18T20:31:56.599Z,53.02
2022-10-18T20:34:27.583Z,53.05
2022-10-18T20:36:56.883Z,52.95
2022-10-18T20:39:25.450Z,51.51
2022-10-18T20:41:53.729Z,51.62
2022-10-18T20:44:23.544Z,51.35
2022-10-18T20:46:51.800Z,51.02
2022-10-18T20:49:20.600Z,50.69
2022-10-18T20:51:48.867Z,50.15
2022-10-18T20:54:17.242Z,49.15
2022-10-18T20:56:45.715Z,49.03
2022-10-18T20:59:14.682Z,49.01
2022-10-18T21:01:43.073Z,49.04
2022-10-18T21:04:12.275Z,48.60
2022-10-18T21:06:43.989Z,48.48
2022-10-18T21:09:18.985Z,48.77
2022-10-18T21:11:50.397Z,48.52
2022-10-18T21:14:21.719Z,48.13
2022-10-18T21:16:51.343Z,48.13
2022-10-18T21:19:27.799Z,47.78
2022-10-18T21:21:58.655Z,47.77
2022-10-18T21:24:27.611Z,46.17
2022-10-18T21:26:56.635Z,46.40
2022-10-18T21:29:28.595Z,45.57
2022-10-18T21:32:00.283Z,45.95
2022-10-18T21:34:28.599Z,45.85
2022-10-18T21:36:56.923Z,44.77
2022-10-18T21:39:25.749Z,44.45
2022-10-18T21:41:54.148Z,44.47
2022-10-18T21:44:22.691Z,44.10
2022-10-18T21:46:51.645Z,44.49
2022-10-18T21:49:20.075Z,43.18
2022-10-18T21:51:48.445Z,42.61
2022-10-18T21:54:17.720Z,42.54
2022-10-18T21:56:46.144Z,43.21
2022-10-18T21:59:15.191Z,42.32
2022-10-18T22:01:45.236Z,42.08
2022-10-18T22:04:24.764Z,42.86
2022-10-18T22:06:53.248Z,42.60
2022-10-18T22:09:22.895Z,41.14
2022-10-18T22:11:54.206Z,41.99
2022-10-18T22:14:22.919Z,41.43
2022-10-18T22:16:51.967Z,41.56
2022-10-18T22:19:20.540Z,41.22
2022-10-18T22:21:49.384Z,40.65
2022-10-18T22:24:17.828Z,41.21
2022-10-18T22:26:47.834Z,39.64
2022-10-18T22:29:19.333Z,40.03
2022-10-18T22:31:53.670Z,40.36
2022-10-18T22:34:27.163Z,40.45
2022-10-18T22:36:56.008Z,39.59
2022-10-18T22:39:25.559Z,40.59
2022-10-18T22:41:57.238Z,40.37
2022-10-18T22:44:26.322Z,40.15
2022-10-18T22:46:54.678Z,39.90
2022-10-18T22:49:22.970Z,40.52
2022-10-18T22:51:51.229Z,40.88
2022-10-18T22:54:19.641Z,40.48
2022-10-18T22:56:48.024Z,40.51
2022-10-18T22:59:16.310Z,41.00
2022-10-18T23:01:44.550Z,41.30
2022-10-18T23:04:12.858Z,41.53
2022-10-18T23:06:41.794Z,41.14
2022-10-18T23:09:12.258Z,41.29
2022-10-18T23:11:40.613Z,42.20
2022-10-18T23:14:08.935Z,42.13
2022-10-18T23:16:37.325Z,42.25
2022-10-18T23:19:06.149Z,42.15
2022-10-18T23:21:35.966Z,42.31
2022-10-18T23:24:04.435Z,42.41
2022-10-18T23:26:32.763Z,42.66
2022-10-18T23:29:01.562Z,42.39
2022-10-18T23:31:32.621Z,42.83
2022-10-18T23:34:03.953Z,42.50
2022-10-18T23:36:33.795Z,43.25
2022-10-18T23:39:02.685Z,43.21
2022-10-18T23:41:31.471Z,43.15
2022-10-18T23:43:59.923Z,42.92
2022-10-18T23:46:28.710Z,42.66
2022-10-18T23:48:57.045Z,42.78
2022-10-18T23:51:25.285Z,43.00
2022-10-18T23:53:53.550Z,42.91
2022-10-18T23:56:24.717Z,42.81
2022-10-18T23:58:53.024Z,42.20
